Monticello, NY

7:35 AM EDT on May 26, 2015 (GMT -0400)
Sullivan County International | Change Station
CLOSE
Current Station
Airport
Location: Monticello,
Elevation: 1404 ft
Nearby Weather Stations

Elev 1404 ft 41.70 °N, 74.80 °W | Updated 20 minutes ago

Scattered Clouds
Scattered Clouds
64 °F
Feels Like 64 °F
N
0
Wind Variable Wind from North

Today
High -- | Low -- °F
--% Chance of Precip.
Yesterday
High -- | Low -- °F
Precip. -- in
5:30 AM 8:21 PM
First Quarter, 57% visible
Pressure 30.22 in
Visibility 10.0 miles
Clouds Scattered Clouds 9000 ft
Dew Point 59 °F
Humidity 83%
Rainfall 0.00 in
Snow Depth Not available.
UV 1 out of 12
Pollen 9.00 out of 12
PM2.5 Good
Flu Activity Widespread
METAR KMSV 261115Z AUTO 00000KT 10SM SCT090 18/15 A3022 RMK AO1

More Conditions Fewer Conditions

Pressure 30.22 in
Visibility 10.0 miles
Clouds Scattered Clouds 9000 ft
Dew Point 59 °F
Humidity 83%
Rainfall 0.00 in
Snow Depth Not available.
UV 1 out of 12
Pollen 9.00 out of 12
PM2.5 Good
Flu Activity Widespread
METAR KMSV 261115Z AUTO 00000KT 10SM SCT090 18/15 A3022 RMK AO1

More Conditions Fewer Conditions

10-Day Weather Forecast

Almanac

Astronomy

May. 26, 2015 Rise Set
Actual Time 5:30 AM EDT 8:21 PM EDT
Civil Twilight 4:57 AM EDT 8:54 PM EDT
Nautical Twilight 4:15 AM EDT 9:36 PM EDT
Astronomical Twilight 3:28 AM EDT 10:24 PM EDT
Moon 1:36 PM EDT 1:47 AM EDT
Length of Visible Light 15h 57m
Length of Day
14h 51m
Tomorrow will be 1m 30s longer.
First Quarter, 57% of the Moon is Illuminated
Today
First Quarter
Jun 2
Full
Jun 9
Last Quarter
Jun 16
New
Jun 24
First Quarter

Today's Extremes

State Highs State Lows

Community

WunderPhotos

Upload Photos

1,824,304 photos uploaded!

Nearby

Air Quality

  Air Quality AQ Index Pollutant
Yesterday Moderate
PM2.5
Yesterday Good
OZONE
Current Good
PM2.5
Tuesday Good
OZONE
Tuesday Good
PM2.5

Snow Depth

Station Depth Elevation
No new snow has been reported.

Earthquake Activity

City Distance Mag. Time & Date
No recent earthquake activity has been reported nearby.
Minimum magnitude displayed is 2.5.

Coastal Water Temperatures

Place Temperature
No Stations Reporting

Nearby Weather Stations